createdAt,value
2023-09-20T00:02:08.508Z,22.10
2023-09-20T00:04:37.359Z,22.10
2023-09-20T00:07:07.337Z,22.10
2023-09-20T00:12:25.366Z,22.10
2023-09-20T00:14:51.889Z,22.10
2023-09-20T00:22:59.950Z,22.10
2023-09-20T00:31:19.484Z,22.10
2023-09-20T00:45:06.411Z,22.10
2023-09-20T00:47:32.972Z,22.10
2023-09-20T00:49:59.576Z,22.10
2023-09-20T00:52:26.127Z,22.10
2023-09-20T00:54:52.668Z,22.10
2023-09-20T00:57:19.253Z,22.10
2023-09-20T00:59:45.795Z,22.10
2023-09-20T01:02:12.527Z,22.10
2023-09-20T01:04:39.099Z,22.10
2023-09-20T01:07:05.644Z,22.10
2023-09-20T01:09:32.192Z,22.10
2023-09-20T01:11:58.700Z,22.10
2023-09-20T01:14:25.403Z,22.10
2023-09-20T01:16:52.098Z,22.10
2023-09-20T01:19:18.696Z,22.10
2023-09-20T01:21:45.240Z,22.10
2023-09-20T01:24:11.811Z,22.10
2023-09-20T01:29:22.223Z,22.10
2023-09-20T01:34:32.743Z,22.10
2023-09-20T01:37:07.571Z,22.10
2023-09-20T01:53:48.171Z,22.10
2023-09-20T02:01:52.478Z,22.10
2023-09-20T02:04:19.017Z,22.10
2023-09-20T02:15:17.865Z,22.10
2023-09-20T02:17:49.580Z,22.10
2023-09-20T02:23:06.951Z,22.10
2023-09-20T02:25:33.527Z,22.10
2023-09-20T02:28:00.044Z,22.10
2023-09-20T02:30:26.607Z,22.00
2023-09-20T02:32:53.163Z,22.10
2023-09-20T02:35:19.781Z,22.10
2023-09-20T02:37:46.335Z,22.10
2023-09-20T02:40:12.875Z,22.10
2023-09-20T02:42:39.438Z,22.10
2023-09-20T02:45:07.482Z,22.10
2023-09-20T02:47:34.145Z,22.10
2023-09-20T02:50:00.803Z,22.10
2023-09-20T02:52:27.361Z,22.10
2023-09-20T02:54:53.880Z,22.10
2023-09-20T02:57:20.404Z,22.10
2023-09-20T02:59:46.940Z,22.10
2023-09-20T03:02:13.478Z,22.10
2023-09-20T03:04:40.026Z,22.10
2023-09-20T03:07:06.612Z,22.10
2023-09-20T03:09:33.145Z,22.10
2023-09-20T03:11:59.680Z,22.10
2023-09-20T03:14:26.283Z,22.10
2023-09-20T03:16:52.924Z,22.10
2023-09-20T03:19:19.435Z,22.00
2023-09-20T03:21:45.990Z,22.10
2023-09-20T03:24:12.508Z,22.10
2023-09-20T03:26:39.115Z,22.00
2023-09-20T03:29:05.749Z,22.10
2023-09-20T03:31:32.340Z,22.10
2023-09-20T03:33:58.850Z,22.10
2023-09-20T03:36:25.356Z,22.10
2023-09-20T03:38:51.899Z,22.10
2023-09-20T03:41:18.434Z,22.10
2023-09-20T03:43:44.999Z,22.10
2023-09-20T03:46:11.539Z,22.00
2023-09-20T03:51:21.964Z,22.00
2023-09-20T03:59:23.205Z,22.00
2023-09-20T04:01:52.569Z,22.00
2023-09-20T04:04:19.140Z,22.00
2023-09-20T04:09:31.566Z,22.00
2023-09-20T04:29:01.625Z,22.00
2023-09-20T04:31:43.669Z,22.00
2023-09-20T04:34:13.595Z,22.00
2023-09-20T04:36:43.573Z,22.00
2023-09-20T04:56:09.005Z,22.00
2023-09-20T04:58:35.560Z,22.00
2023-09-20T05:01:02.148Z,22.00
2023-09-20T05:03:28.842Z,22.00
2023-09-20T05:05:55.527Z,22.00
2023-09-20T05:08:22.185Z,22.00
2023-09-20T05:10:48.811Z,22.00
2023-09-20T05:13:15.346Z,22.00
2023-09-20T05:15:41.900Z,22.00
2023-09-20T05:18:08.489Z,22.00
2023-09-20T05:20:35.063Z,22.00
2023-09-20T05:23:01.655Z,22.00
2023-09-20T05:25:28.229Z,22.00
2023-09-20T05:27:54.753Z,22.00
2023-09-20T05:30:21.288Z,22.00
2023-09-20T05:32:47.999Z,22.00
2023-09-20T05:35:14.666Z,22.00
2023-09-20T05:37:41.248Z,22.00
2023-09-20T05:40:07.820Z,22.00
2023-09-20T05:42:34.375Z,22.00
2023-09-20T05:45:00.926Z,22.00
2023-09-20T05:47:31.760Z,22.00
2023-09-20T05:49:58.369Z,22.00
2023-09-20T05:52:24.893Z,22.00
2023-09-20T05:54:51.431Z,22.00
2023-09-20T05:57:17.949Z,22.00
2023-09-20T05:59:44.516Z,22.00
2023-09-20T06:02:11.125Z,22.00
2023-09-20T06:04:37.669Z,22.00
2023-09-20T06:07:04.180Z,22.00
2023-09-20T06:09:30.691Z,22.00
2023-09-20T06:11:57.206Z,22.00
2023-09-20T06:14:23.783Z,22.00
2023-09-20T06:16:50.448Z,22.00
2023-09-20T06:19:17.259Z,22.00
2023-09-20T06:21:43.881Z,22.00
2023-09-20T06:24:10.402Z,22.00
2023-09-20T06:26:36.946Z,22.00
2023-09-20T06:29:03.548Z,22.00
2023-09-20T06:31:30.129Z,22.00
2023-09-20T06:33:56.714Z,22.00
2023-09-20T06:36:23.265Z,22.00
2023-09-20T06:38:55.706Z,22.00
2023-09-20T06:41:24.852Z,22.00
2023-09-20T06:43:52.643Z,22.00
2023-09-20T06:46:19.200Z,22.00
2023-09-20T06:48:46.013Z,22.00
2023-09-20T06:51:12.802Z,22.00
2023-09-20T06:53:39.366Z,22.00
2023-09-20T06:56:05.977Z,22.00
2023-09-20T06:58:32.569Z,22.00
2023-09-20T07:01:01.764Z,22.00
2023-09-20T07:03:28.401Z,22.00
2023-09-20T07:05:54.950Z,22.00
2023-09-20T07:08:21.508Z,22.00
2023-09-20T07:10:48.033Z,22.00
2023-09-20T07:13:14.549Z,22.00
2023-09-20T07:15:41.048Z,22.00
2023-09-20T07:18:07.634Z,21.90
2023-09-20T07:20:34.355Z,22.00
2023-09-20T07:23:00.870Z,22.00
2023-09-20T07:25:27.412Z,22.00
2023-09-20T07:27:53.911Z,21.90
2023-09-20T07:30:20.464Z,21.90
2023-09-20T07:32:57.245Z,22.00
2023-09-20T07:35:31.697Z,22.00
2023-09-20T07:37:58.218Z,21.90
2023-09-20T07:40:24.742Z,21.90
2023-09-20T07:42:51.269Z,22.00
2023-09-20T07:45:17.807Z,22.00
2023-09-20T07:47:44.362Z,21.90
2023-09-20T07:50:11.008Z,21.80
2023-09-20T07:52:37.572Z,21.90
2023-09-20T07:55:04.085Z,21.80
2023-09-20T07:57:30.611Z,21.80
2023-09-20T07:59:57.121Z,21.80
2023-09-20T08:02:23.700Z,21.90
2023-09-20T08:04:50.261Z,21.90
2023-09-20T08:07:16.762Z,21.90
2023-09-20T08:09:43.326Z,21.90
2023-09-20T08:12:09.923Z,21.90
2023-09-20T08:14:36.468Z,21.90
2023-09-20T08:17:03.136Z,21.90
2023-09-20T08:19:29.709Z,21.90
2023-09-20T08:21:56.267Z,21.90
2023-09-20T08:24:22.804Z,21.90
2023-09-20T08:26:49.414Z,22.00
2023-09-20T08:29:16.063Z,22.00
2023-09-20T08:31:42.733Z,22.00
2023-09-20T08:34:09.342Z,22.00
2023-09-20T08:36:35.905Z,22.00
2023-09-20T08:39:02.434Z,22.00
2023-09-20T08:41:29.806Z,22.00
2023-09-20T08:43:56.498Z,22.00
2023-09-20T08:46:23.138Z,22.00
2023-09-20T08:48:49.758Z,22.00
2023-09-20T08:51:16.269Z,22.00
2023-09-20T08:53:42.858Z,22.00
2023-09-20T08:56:09.455Z,22.00
2023-09-20T08:58:35.967Z,22.00
2023-09-20T09:01:02.472Z,22.00
2023-09-20T09:03:29.171Z,22.00
2023-09-20T09:05:55.894Z,22.00
2023-09-20T09:08:22.523Z,22.00
2023-09-20T09:10:49.097Z,22.00
2023-09-20T09:13:15.638Z,22.00
2023-09-20T09:15:42.185Z,22.00
2023-09-20T09:18:08.776Z,22.00
2023-09-20T09:20:35.418Z,22.00
2023-09-20T09:23:01.964Z,22.00
2023-09-20T09:25:28.513Z,22.00
2023-09-20T09:27:55.050Z,22.10
2023-09-20T09:30:21.774Z,22.10
2023-09-20T09:32:48.649Z,22.00
2023-09-20T09:35:17.242Z,22.10
2023-09-20T09:37:45.870Z,22.10
2023-09-20T09:40:12.424Z,22.10
2023-09-20T09:42:38.943Z,22.10
2023-09-20T09:45:05.457Z,22.10
2023-09-20T09:47:33.171Z,22.10
2023-09-20T09:49:59.716Z,22.10
2023-09-20T09:52:26.237Z,22.10
2023-09-20T09:54:52.756Z,22.10
2023-09-20T09:57:19.294Z,22.10
2023-09-20T09:59:45.866Z,22.10
2023-09-20T10:02:12.441Z,22.10
2023-09-20T10:04:39.098Z,22.10
2023-09-20T10:07:05.639Z,22.10
2023-09-20T10:09:32.157Z,22.10
2023-09-20T10:11:58.675Z,22.10
2023-09-20T10:14:25.225Z,22.10
2023-09-20T10:16:51.764Z,22.10
2023-09-20T10:24:53.136Z,22.10
2023-09-20T10:41:27.183Z,22.10
2023-09-20T10:49:37.925Z,22.10
2023-09-20T11:03:21.074Z,22.10
2023-09-20T11:05:47.726Z,22.10
2023-09-20T11:08:14.335Z,22.10
2023-09-20T11:10:40.864Z,22.10
2023-09-20T11:13:07.405Z,22.10
2023-09-20T11:15:33.939Z,22.10
2023-09-20T11:18:00.601Z,22.10
2023-09-20T11:20:27.277Z,22.10
2023-09-20T11:22:53.834Z,22.10
2023-09-20T11:25:20.522Z,22.10
2023-09-20T11:27:49.961Z,22.10
2023-09-20T11:30:16.608Z,22.10
2023-09-20T11:32:43.232Z,22.10
2023-09-20T11:38:01.954Z,22.10
2023-09-20T11:40:31.957Z,22.10
2023-09-20T11:48:33.274Z,22.10
2023-09-20T12:02:22.177Z,22.10
2023-09-20T12:38:59.368Z,22.20
2023-09-20T12:41:25.973Z,22.20
2023-09-20T13:32:18.073Z,22.20
2023-09-20T13:40:25.218Z,22.20
2023-09-20T13:51:16.093Z,22.30
2023-09-20T13:56:34.303Z,22.30
2023-09-20T14:01:51.285Z,22.30
2023-09-20T14:21:23.320Z,22.30
2023-09-20T14:26:34.054Z,22.30
2023-09-20T14:31:50.143Z,22.30
2023-09-20T14:51:15.168Z,22.40
2023-09-20T14:56:28.511Z,22.40
2023-09-20T15:01:39.441Z,22.70
2023-09-20T15:04:08.138Z,22.70
2023-09-20T15:12:16.225Z,22.50
2023-09-20T15:34:39.177Z,22.40
2023-09-20T15:39:56.244Z,22.40
2023-09-20T15:42:22.776Z,22.40
2023-09-20T15:44:49.361Z,22.40
2023-09-20T15:47:15.896Z,22.40
2023-09-20T15:49:42.400Z,22.40
2023-09-20T15:52:08.924Z,22.40
2023-09-20T15:54:38.132Z,22.40
2023-09-20T15:57:04.670Z,22.40
2023-09-20T15:59:31.244Z,22.40
2023-09-20T16:01:57.762Z,22.40
2023-09-20T16:04:24.444Z,22.40
2023-09-20T16:06:51.068Z,22.40
2023-09-20T16:09:17.589Z,22.40
2023-09-20T16:11:44.169Z,22.40
2023-09-20T16:14:10.775Z,22.40
2023-09-20T16:16:37.320Z,22.40
2023-09-20T16:19:03.845Z,22.40
2023-09-20T16:21:30.372Z,22.40
2023-09-20T16:23:56.956Z,22.40
2023-09-20T16:26:23.501Z,22.40
2023-09-20T16:28:50.040Z,22.50
2023-09-20T16:31:16.597Z,22.40
2023-09-20T16:33:43.407Z,22.40
2023-09-20T16:36:10.118Z,22.40
2023-09-20T16:38:36.696Z,22.40
2023-09-20T16:41:03.242Z,22.40
2023-09-20T16:43:29.757Z,22.40
2023-09-20T16:45:56.355Z,22.40
2023-09-20T16:48:23.013Z,22.40
2023-09-20T16:50:49.629Z,22.40
2023-09-20T16:58:58.320Z,22.40
2023-09-20T17:01:32.368Z,22.40
2023-09-20T17:06:49.330Z,22.40
2023-09-20T17:12:06.110Z,22.40
2023-09-20T17:17:16.874Z,22.40
2023-09-20T17:25:18.193Z,22.40
2023-09-20T18:01:55.241Z,22.30
2023-09-20T18:10:03.220Z,22.30
2023-09-20T18:15:13.581Z,22.40
2023-09-20T18:20:24.018Z,22.30
2023-09-20T18:25:41.312Z,22.30
2023-09-20T18:36:39.310Z,22.30
2023-09-20T18:39:08.335Z,22.30
2023-09-20T18:44:18.856Z,22.30
2023-09-20T18:46:45.379Z,22.30
2023-09-20T18:49:11.961Z,22.30
2023-09-20T19:02:55.512Z,22.30
2023-09-20T19:05:28.309Z,22.30
2023-09-20T19:07:56.336Z,22.30
2023-09-20T19:10:26.570Z,22.30
2023-09-20T19:44:14.379Z,22.30
2023-09-20T19:49:31.114Z,22.20
2023-09-20T19:54:41.662Z,22.20
2023-09-20T19:59:52.188Z,22.20
2023-09-20T20:02:18.758Z,22.20
2023-09-20T20:04:45.439Z,22.30
2023-09-20T20:15:37.293Z,22.20
2023-09-20T20:20:54.165Z,22.20
2023-09-20T20:23:20.725Z,22.20
2023-09-20T20:25:50.546Z,22.20
2023-09-20T20:28:17.068Z,22.20
2023-09-20T20:30:43.596Z,22.20
2023-09-20T20:33:10.211Z,22.20
2023-09-20T20:35:36.796Z,22.20
2023-09-20T20:38:03.363Z,22.20
2023-09-20T20:40:29.879Z,22.20
2023-09-20T20:42:56.405Z,22.30
2023-09-20T20:45:22.931Z,22.30
2023-09-20T20:47:49.517Z,22.20
2023-09-20T20:50:16.113Z,22.20
2023-09-20T20:52:42.641Z,22.20
2023-09-20T20:55:09.159Z,22.20
2023-09-20T20:57:35.672Z,22.20
2023-09-20T21:00:02.256Z,22.20
2023-09-20T21:02:28.939Z,22.20
2023-09-20T21:04:55.548Z,22.20
2023-09-20T21:07:22.060Z,22.20
2023-09-20T21:09:48.683Z,22.20
2023-09-20T21:12:15.230Z,22.30
2023-09-20T21:14:41.796Z,22.20
2023-09-20T21:17:08.505Z,22.20
2023-09-20T21:19:35.056Z,22.20
2023-09-20T21:22:01.618Z,22.20
2023-09-20T21:24:28.179Z,22.20
2023-09-20T21:26:54.754Z,22.20
2023-09-20T21:29:21.307Z,22.20
2023-09-20T21:31:47.848Z,22.20
2023-09-20T21:34:14.426Z,22.20
2023-09-20T21:36:40.961Z,22.20
2023-09-20T21:39:07.524Z,22.20
2023-09-20T21:41:34.071Z,22.20
2023-09-20T21:44:00.631Z,22.20
2023-09-20T21:46:27.217Z,22.20
2023-09-20T21:48:53.904Z,22.20
2023-09-20T21:51:20.530Z,22.20
2023-09-20T21:53:47.106Z,22.20
2023-09-20T21:56:13.661Z,22.20
2023-09-20T21:58:40.287Z,22.20
2023-09-20T22:01:07.003Z,22.20
2023-09-20T22:03:33.735Z,22.20
2023-09-20T22:06:00.376Z,22.20
2023-09-20T22:08:26.936Z,22.20
2023-09-20T22:10:53.429Z,22.20
2023-09-20T22:13:20.067Z,22.20
2023-09-20T22:15:46.762Z,22.20
2023-09-20T22:18:13.480Z,22.20
2023-09-20T22:20:40.036Z,22.20
2023-09-20T22:23:06.597Z,22.10
2023-09-20T22:25:33.160Z,22.20
2023-09-20T22:27:59.705Z,22.20
2023-09-20T22:30:26.249Z,22.10
2023-09-20T22:32:52.842Z,22.20
2023-09-20T22:35:19.498Z,22.20
2023-09-20T22:37:46.056Z,22.10
2023-09-20T22:40:12.625Z,22.20
2023-09-20T22:42:39.157Z,22.20
2023-09-20T22:45:05.741Z,22.20
2023-09-20T22:47:32.372Z,22.10
2023-09-20T22:49:59.038Z,22.20
2023-09-20T22:52:25.590Z,22.10
2023-09-20T22:54:52.150Z,22.20
2023-09-20T22:57:18.671Z,22.10
2023-09-20T22:59:45.228Z,22.10
2023-09-20T23:02:11.742Z,22.20
2023-09-20T23:04:38.423Z,22.20
2023-09-20T23:07:05.050Z,22.10
2023-09-20T23:09:31.567Z,22.20
2023-09-20T23:11:58.101Z,22.10
2023-09-20T23:14:24.628Z,22.10
2023-09-20T23:16:51.169Z,22.10
2023-09-20T23:19:17.740Z,22.10
2023-09-20T23:33:07.071Z,22.20
2023-09-20T23:35:50.721Z,22.10
2023-09-20T23:46:48.014Z,22.10
2023-09-20T23:49:32.721Z,22.10
2023-09-20T23:51:59.257Z,22.10
